Time;durP1;ratioP1;P1;durP2;ratioP2;P2;SDS_P1;SDS_P2;PMS_P1;PMS_P2;Temp;Humidity;BMP_temperature;BMP_pressure;BME280_temperature;BME280_humidity;BME280_pressure;Samples;Min_cycle;Max_cycle;Signal;HPM_P1;HPM_P2
2022/07/26 00:02:13;;;;;;;1999.90;999.90;;;20.20;99.90;;;;;;5094258;28;20474;-69
2022/07/26 00:04:40;;;;;;;1999.90;999.90;;;20.20;99.90;;;;;;5093904;28;20464;-69
2022/07/26 00:07:07;;;;;;;1999.90;999.90;;;20.20;99.90;;;;;;5091869;28;20484;-69
2022/07/26 00:09:33;;;;;;;1999.90;999.90;;;20.20;99.90;;;;;;5093710;28;20514;-69
2022/07/26 00:12:00;;;;;;;1999.90;999.90;;;20.20;99.90;;;;;;5094377;28;20449;-69
2022/07/26 00:14:28;;;;;;;1999.90;999.90;;;20.20;99.90;;;;;;5094643;28;20437;-69
2022/07/26 00:16:55;;;;;;;1999.90;999.90;;;20.10;99.90;;;;;;5093051;28;20609;-69
2022/07/26 00:19:22;;;;;;;1999.90;999.90;;;20.00;99.90;;;;;;5094340;28;20533;-69
2022/07/26 00:22:32;;;;;;;1999.90;999.90;;;19.90;99.90;;;;;;5093668;28;21014;-69
2022/07/26 00:24:35;;;;;;;1999.90;999.90;;;19.80;99.90;;;;;;5094068;28;20441;-69
2022/07/26 00:27:02;;;;;;;1999.90;999.90;;;19.80;99.90;;;;;;5093505;28;20445;-69
2022/07/26 00:29:30;;;;;;;1999.90;999.90;;;19.70;99.90;;;;;;5092916;28;20480;-69
2022/07/26 00:31:57;;;;;;;1999.90;999.90;;;19.30;99.90;;;;;;5093922;28;20933;-68
2022/07/26 00:34:24;;;;;;;1999.90;999.90;;;19.20;99.90;;;;;;5093929;28;20800;-68
2022/07/26 00:36:50;;;;;;;1999.90;999.90;;;19.30;99.90;;;;;;5093719;28;20852;-67
2022/07/26 00:39:17;;;;;;;1999.90;999.90;;;19.10;99.90;;;;;;5107990;22;20441;-71
2022/07/26 00:41:43;;;;;;;1999.90;999.90;;;19.00;99.90;;;;;;5032513;28;20509;-73
2022/07/26 00:44:10;;;;;;;1999.90;999.90;;;18.90;99.90;;;;;;5034006;28;20469;-73
2022/07/26 00:46:41;;;;;;;1999.90;999.90;;;18.80;99.90;;;;;;5033809;28;20447;-73
2022/07/26 00:49:08;;;;;;;1999.90;999.90;;;18.70;99.90;;;;;;5033691;28;20439;-73
2022/07/26 00:51:35;;;;;;;1999.90;999.90;;;18.70;99.90;;;;;;5032611;28;20956;-73
2022/07/26 00:54:01;;;;;;;1999.90;999.90;;;18.60;99.90;;;;;;5033898;28;20497;-72
2022/07/26 00:56:28;;;;;;;1999.90;999.90;;;18.60;99.90;;;;;;5033280;28;20517;-73
2022/07/26 00:58:55;;;;;;;1999.90;999.90;;;18.60;99.90;;;;;;5033656;28;20443;-70
2022/07/26 01:01:22;;;;;;;1999.90;999.90;;;18.60;99.90;;;;;;5033595;28;20455;-72
2022/07/26 01:03:52;;;;;;;1999.90;999.90;;;18.60;99.90;;;;;;5032339;28;20475;-73
2022/07/26 01:06:20;;;;;;;1999.90;999.90;;;18.70;99.90;;;;;;5033426;28;20443;-70
2022/07/26 01:08:47;;;;;;;1999.90;999.90;;;18.80;99.90;;;;;;5033494;28;20444;-72
2022/07/26 01:11:13;;;;;;;1999.90;999.90;;;18.90;99.90;;;;;;5033587;28;20479;-73
2022/07/26 01:13:46;;;;;;;1999.90;999.90;;;18.80;99.90;;;;;;5033547;28;21112;-72
2022/07/26 01:16:12;;;;;;;1999.90;999.90;;;18.80;99.90;;;;;;5031882;28;20459;-73
2022/07/26 01:18:39;;;;;;;1999.90;999.90;;;18.80;99.90;;;;;;5032933;28;20483;-72
2022/07/26 01:21:09;;;;;;;1999.90;999.90;;;18.80;99.90;;;;;;5032487;28;20475;-73
2022/07/26 01:23:37;;;;;;;1999.90;999.90;;;18.70;99.90;;;;;;5033174;28;20469;-73
2022/07/26 01:26:04;;;;;;;1999.90;999.90;;;18.60;99.90;;;;;;5031870;28;20513;-72
2022/07/26 01:28:30;;;;;;;1999.90;999.90;;;18.70;99.90;;;;;;5032615;28;20493;-72
2022/07/26 01:30:57;;;;;;;1999.90;999.90;;;18.70;99.90;;;;;;5030625;28;20490;-72
2022/07/26 01:33:26;;;;;;;1999.90;999.90;;;18.70;99.90;;;;;;5033086;28;20439;-73
2022/07/26 01:35:53;;;;;;;1999.90;999.90;;;18.70;99.90;;;;;;5033585;28;20490;-72
2022/07/26 01:38:20;;;;;;;1999.90;999.90;;;18.70;99.90;;;;;;5032605;28;20482;-73
2022/07/26 01:40:48;;;;;;;1999.90;999.90;;;18.80;99.90;;;;;;5031584;28;20491;-73
2022/07/26 01:43:14;;;;;;;1999.90;999.90;;;18.70;99.90;;;;;;5032676;28;20451;-72
2022/07/26 01:45:41;;;;;;;1999.90;999.90;;;18.60;99.90;;;;;;5032626;28;20447;-73
2022/07/26 01:48:08;;;;;;;1999.90;999.90;;;18.50;99.90;;;;;;5032670;28;20529;-73
2022/07/26 01:50:35;;;;;;;1999.90;999.90;;;18.50;99.90;;;;;;5032652;28;20489;-73
2022/07/26 01:53:02;;;;;;;1999.90;999.90;;;18.60;99.90;;;;;;5031125;28;21024;-73
2022/07/26 01:55:29;;;;;;;1999.90;999.90;;;18.60;99.90;;;;;;5032448;28;20501;-73
2022/07/26 01:57:57;;;;;;;1999.90;999.90;;;18.60;99.90;;;;;;5032613;28;20494;-73
2022/07/26 02:00:24;;;;;;;1999.90;999.90;;;18.50;99.90;;;;;;5032463;28;20467;-72
2022/07/26 02:02:50;;;;;;;1999.90;999.90;;;18.50;99.90;;;;;;5032507;28;20447;-74
2022/07/26 02:05:17;;;;;;;1999.90;999.90;;;18.40;99.90;;;;;;5030810;28;20947;-72
2022/07/26 02:07:44;;;;;;;1999.90;999.90;;;18.50;99.90;;;;;;5032232;28;20994;-73
2022/07/26 02:10:12;;;;;;;1999.90;999.90;;;18.70;99.90;;;;;;5032317;28;20467;-70
2022/07/26 02:12:39;;;;;;;1999.90;999.90;;;18.80;99.90;;;;;;5032328;28;20450;-72
2022/07/26 02:15:09;;;;;;;1999.90;999.90;;;18.80;99.90;;;;;;5032516;28;20447;-73
2022/07/26 02:17:35;;;;;;;1999.90;999.90;;;18.70;99.90;;;;;;5030093;28;20483;-73
2022/07/26 02:20:03;;;;;;;1999.90;999.90;;;18.80;99.90;;;;;;5032645;28;20463;-72
2022/07/26 02:22:29;;;;;;;1999.90;999.90;;;18.80;99.90;;;;;;5032531;28;20447;-72
2022/07/26 02:24:56;;;;;;;1999.90;999.90;;;18.90;99.90;;;;;;5032283;28;20451;-73
2022/07/26 02:27:23;;;;;;;1999.90;999.90;;;18.90;99.90;;;;;;5032039;28;20438;-72
2022/07/26 02:29:49;;;;;;;1999.90;999.90;;;19.00;99.90;;;;;;5030810;28;20533;-72
2022/07/26 02:32:17;;;;;;;1999.90;999.90;;;18.90;99.90;;;;;;5032276;28;20447;-72
2022/07/26 02:34:44;;;;;;;1999.90;999.90;;;18.90;99.90;;;;;;5032418;28;20501;-73
2022/07/26 02:37:11;;;;;;;1999.90;999.90;;;18.90;99.90;;;;;;5031787;28;20506;-73
2022/07/26 02:39:37;;;;;;;1999.90;999.90;;;18.90;99.90;;;;;;5031798;28;20493;-73
2022/07/26 02:42:04;;;;;;;1999.90;999.90;;;19.00;99.90;;;;;;5030790;28;20463;-73
2022/07/26 02:44:32;;;;;;;1999.90;999.90;;;19.00;99.90;;;;;;5032140;28;20578;-73
2022/07/26 02:46:59;;;;;;;1999.90;999.90;;;19.00;99.90;;;;;;5031888;28;20461;-72
2022/07/26 02:49:27;;;;;;;1999.90;999.90;;;19.10;99.90;;;;;;5031724;28;20467;-73
2022/07/26 02:51:53;;;;;;;1999.90;999.90;;;19.00;99.90;;;;;;5031846;28;21012;-72
2022/07/26 02:54:20;;;;;;;1999.90;999.90;;;18.90;99.90;;;;;;5030496;28;20517;-72
2022/07/26 02:56:47;;;;;;;1999.90;999.90;;;18.80;99.90;;;;;;5031437;28;20834;-73
2022/07/26 02:59:14;;;;;;;1999.90;999.90;;;19.00;99.90;;;;;;5032210;28;20487;-73
2022/07/26 03:01:40;;;;;;;1999.90;999.90;;;19.00;99.90;;;;;;5032224;28;20447;-73
2022/07/26 03:04:07;;;;;;;1999.90;999.90;;;19.00;99.90;;;;;;5030866;28;20466;-72
2022/07/26 03:06:35;;;;;;;1999.90;999.90;;;19.00;99.90;;;;;;5031457;28;20497;-73
2022/07/26 03:09:02;;;;;;;1999.90;999.90;;;19.00;99.90;;;;;;5031937;28;20868;-73
2022/07/26 03:11:28;;;;;;;1999.90;999.90;;;18.90;99.90;;;;;;5032172;28;20451;-72
2022/07/26 03:13:55;;;;;;;1999.90;999.90;;;18.90;99.90;;;;;;5032327;28;20516;-73
2022/07/26 03:16:22;;;;;;;1999.90;999.90;;;18.80;99.90;;;;;;5029839;28;21014;-73
2022/07/26 03:18:48;;;;;;;1999.90;999.90;;;18.70;99.90;;;;;;5031562;28;20479;-73
2022/07/26 03:21:15;;;;;;;1999.90;999.90;;;18.70;99.90;;;;;;5031439;28;20525;-73
2022/07/26 03:23:43;;;;;;;1999.90;999.90;;;18.80;99.90;;;;;;5032119;28;20451;-73
2022/07/26 03:26:09;;;;;;;1999.90;999.90;;;18.90;99.90;;;;;;5031756;28;20459;-71
2022/07/26 03:28:38;;;;;;;1999.90;999.90;;;18.80;99.90;;;;;;5032918;28;20463;-71
2022/07/26 03:31:05;;;;;;;1999.90;999.90;;;18.70;99.90;;;;;;5034728;28;20502;-72
2022/07/26 03:33:31;;;;;;;1999.90;999.90;;;18.60;99.90;;;;;;5034933;28;21014;-73
2022/07/26 03:35:58;;;;;;;1999.90;999.90;;;18.40;99.90;;;;;;5035069;28;20512;-72
2022/07/26 03:38:25;;;;;;;1999.90;999.90;;;18.40;99.90;;;;;;5035253;28;20541;-73
2022/07/26 03:40:53;;;;;;;1999.90;999.90;;;18.30;99.90;;;;;;5033254;28;20519;-73
2022/07/26 03:43:20;;;;;;;1999.90;999.90;;;18.40;99.90;;;;;;5034824;28;20952;-73
2022/07/26 03:45:46;;;;;;;1999.90;999.90;;;18.50;99.90;;;;;;5035353;28;20505;-72
2022/07/26 03:48:13;;;;;;;1999.90;999.90;;;18.50;99.90;;;;;;5035185;28;20589;-72
2022/07/26 03:50:40;;;;;;;1999.90;999.90;;;18.50;99.90;;;;;;5034010;28;20516;-72
2022/07/26 03:53:06;;;;;;;1999.90;999.90;;;18.50;99.90;;;;;;5035037;28;20505;-72
2022/07/26 03:58:19;;;;;;;1999.90;999.90;;;18.40;99.90;;;;;;5034194;28;20502;-72
2022/07/26 04:00:45;;;;;;;1999.90;999.90;;;18.50;99.90;;;;;;5034618;28;20470;-72
2022/07/26 04:03:12;;;;;;;1999.90;999.90;;;18.50;99.90;;;;;;5033479;28;20520;-73
2022/07/26 04:05:39;;;;;;;1999.90;999.90;;;18.50;99.90;;;;;;5034669;28;20447;-72
2022/07/26 04:08:05;;;;;;;1999.90;999.90;;;18.50;99.90;;;;;;5034584;28;20442;-71
2022/07/26 04:10:32;;;;;;;1999.90;999.90;;;18.50;99.90;;;;;;5034724;28;21046;-72
2022/07/26 04:12:59;;;;;;;1999.90;999.90;;;18.50;99.90;;;;;;5034759;28;21018;-73
2022/07/26 04:15:27;;;;;;;1999.90;999.90;;;18.50;99.90;;;;;;5033498;28;20459;-73
2022/07/26 04:17:53;;;;;;;1999.90;999.90;;;18.40;99.90;;;;;;5033977;28;20479;-73
2022/07/26 04:20:20;;;;;;;1999.90;999.90;;;18.40;99.90;;;;;;5034599;28;20493;-73
2022/07/26 04:22:47;;;;;;;1999.90;999.90;;;18.40;99.90;;;;;;5034215;28;20454;-72
2022/07/26 04:25:13;;;;;;;1999.90;999.90;;;18.50;99.90;;;;;;5034284;28;20451;-71
2022/07/26 04:27:40;;;;;;;1999.90;999.90;;;18.60;99.90;;;;;;5032986;28;20463;-73
2022/07/26 04:30:08;;;;;;;1999.90;999.90;;;18.70;99.90;;;;;;5034263;28;20525;-73
2022/07/26 04:32:36;;;;;;;1999.90;999.90;;;18.70;99.90;;;;;;5034480;28;20447;-73
2022/07/26 04:35:03;;;;;;;1999.90;999.90;;;18.70;99.90;;;;;;5034565;28;20447;-73
2022/07/26 04:37:33;;;;;;;1999.90;999.90;;;18.80;99.90;;;;;;5032249;28;20467;-74
2022/07/26 04:40:00;;;;;;;1999.90;999.90;;;18.90;99.90;;;;;;5031323;28;20497;-71
2022/07/26 04:42:26;;;;;;;1999.90;999.90;;;19.10;99.90;;;;;;5034410;28;20517;-73
2022/07/26 04:44:53;;;;;;;1999.90;999.90;;;19.70;99.90;;;;;;5034584;28;20505;-74
2022/07/26 04:47:20;;;;;;;1999.90;999.90;;;19.60;99.90;;;;;;5033088;28;20502;-73
2022/07/26 04:49:48;;;;;;;1999.90;999.90;;;19.90;99.90;;;;;;5033626;28;20455;-73
2022/07/26 04:52:14;;;;;;;1999.90;999.90;;;20.00;99.90;;;;;;5034171;28;20443;-73
2022/07/26 04:54:41;;;;;;;1999.90;999.90;;;20.10;99.90;;;;;;5034465;28;20443;-73
2022/07/26 04:57:08;;;;;;;1999.90;999.90;;;19.90;99.90;;;;;;5033806;28;20443;-73
2022/07/26 04:59:34;;;;;;;1999.90;999.90;;;20.00;99.90;;;;;;5032738;28;20521;-73
2022/07/26 05:02:01;;;;;;;1999.90;999.90;;;20.00;99.90;;;;;;5033984;28;20447;-74
2022/07/26 05:04:28;;;;;;;1999.90;999.90;;;20.00;99.90;;;;;;5033670;28;20503;-75
2022/07/26 05:07:01;;;;;;;1999.90;999.90;;;20.30;99.90;;;;;;5033879;28;20451;-74
2022/07/26 05:09:27;;;;;;;1999.90;999.90;;;20.30;99.90;;;;;;5032960;28;20475;-74
2022/07/26 05:11:54;;;;;;;1999.90;999.90;;;20.70;99.90;;;;;;5033404;28;20447;-74
2022/07/26 05:14:21;;;;;;;1999.90;999.90;;;20.80;99.90;;;;;;5034026;28;20447;-74
2022/07/26 05:16:48;;;;;;;1999.90;999.90;;;20.60;99.90;;;;;;5033515;28;20456;-73
2022/07/26 05:19:15;;;;;;;1999.90;999.90;;;20.90;99.90;;;;;;5033622;28;20479;-73
2022/07/26 05:21:41;;;;;;;1999.90;999.90;;;21.00;99.90;;;;;;5032013;28;20471;-73
2022/07/26 05:24:10;;;;;;;1999.90;999.90;;;21.10;99.90;;;;;;5033191;28;20516;-74
2022/07/26 05:26:36;;;;;;;1999.90;999.90;;;21.10;99.90;;;;;;5032652;28;20451;-74
2022/07/26 05:29:03;;;;;;;1999.90;999.90;;;20.70;99.90;;;;;;5032593;28;20444;-73
2022/07/26 05:31:29;;;;;;;1999.90;999.90;;;20.90;99.90;;;;;;5033074;28;20742;-73
2022/07/26 05:33:56;;;;;;;1999.90;999.90;;;20.90;99.90;;;;;;5030989;28;20536;-73
2022/07/26 05:36:23;;;;;;;1999.90;999.90;;;21.00;99.90;;;;;;5023918;28;20448;-71
2022/07/26 05:38:49;;;;;;;1999.90;999.90;;;21.00;99.90;;;;;;5033484;28;20487;-72
2022/07/26 05:41:17;;;;;;;1999.90;999.90;;;21.10;99.90;;;;;;5031338;28;20604;-73
2022/07/26 05:43:44;;;;;;;1999.90;999.90;;;21.00;99.90;;;;;;5032965;28;20451;-73
2022/07/26 05:46:11;;;;;;;1999.90;999.90;;;21.00;99.90;;;;;;5032957;28;20451;-73
2022/07/26 05:48:38;;;;;;;1999.90;999.90;;;21.20;99.90;;;;;;5032852;28;20444;-72
2022/07/26 05:51:05;;;;;;;1999.90;999.90;;;21.20;99.90;;;;;;5031332;28;20545;-72
2022/07/26 05:53:32;;;;;;;1999.90;999.90;;;21.50;99.90;;;;;;5032808;28;20448;-72
2022/07/26 05:55:58;;;;;;;1999.90;999.90;;;21.30;99.90;;;;;;5032777;28;20878;-73
2022/07/26 05:58:26;;;;;;;1999.90;999.90;;;21.30;99.90;;;;;;5032332;28;20487;-72
2022/07/26 06:00:53;;;;;;;1999.90;999.90;;;21.10;99.90;;;;;;5032584;28;20471;-72
2022/07/26 06:03:22;;;;;;;1999.90;999.90;;;21.20;99.90;;;;;;5032076;28;20470;-72
2022/07/26 06:05:50;;;;;;;1999.90;999.90;;;21.40;99.90;;;;;;5032510;28;20933;-73
2022/07/26 06:08:18;;;;;;;1999.90;999.90;;;21.30;99.90;;;;;;5032689;28;20451;-73
2022/07/26 06:10:45;;;;;;;1999.90;999.90;;;21.40;99.90;;;;;;5032424;28;20521;-73
2022/07/26 06:13:12;;;;;;;1999.90;999.90;;;21.50;99.90;;;;;;5032613;28;20451;-73
2022/07/26 06:15:41;;;;;;;1999.90;999.90;;;21.70;99.90;;;;;;5031778;28;20474;-73
2022/07/26 06:18:07;;;;;;;1999.90;999.90;;;21.50;99.90;;;;;;5032290;28;20540;-72
2022/07/26 06:20:37;;;;;;;1999.90;999.90;;;21.50;99.90;;;;;;5029619;28;20479;-71
2022/07/26 06:23:04;;;;;;;1999.90;999.90;;;21.80;99.90;;;;;;5030007;28;20496;-77
2022/07/26 06:25:31;;;;;;;1999.90;999.90;;;22.10;99.90;;;;;;5032732;28;20450;-73
2022/07/26 06:27:57;;;;;;;1999.90;999.90;;;22.30;99.90;;;;;;5030524;28;20857;-72
2022/07/26 06:30:43;;;;;;;1999.90;999.90;;;22.00;99.90;;;;;;5009430;28;20459;-72
2022/07/26 06:33:10;;;;;;;1999.90;999.90;;;21.80;99.90;;;;;;5032268;28;20435;-73
2022/07/26 06:35:37;;;;;;;1999.90;999.90;;;21.80;99.90;;;;;;5032275;28;21108;-73
2022/07/26 06:38:05;;;;;;;1999.90;999.90;;;21.80;99.90;;;;;;5031258;28;20579;-72
2022/07/26 06:40:33;;;;;;;1999.90;999.90;;;22.00;99.90;;;;;;5071068;23;20497;-70
2022/07/26 06:42:59;;;;;;;1999.90;999.90;;;22.30;99.90;;;;;;5091793;28;20458;-70
2022/07/26 06:45:26;;;;;;;1999.90;999.90;;;22.80;99.90;;;;;;5091892;28;20456;-70
2022/07/26 06:47:54;;;;;;;1999.90;999.90;;;22.90;99.90;;;;;;5091346;28;20493;-70
2022/07/26 06:50:20;;;;;;;1999.90;999.90;;;23.00;99.90;;;;;;5087423;28;20473;-70
2022/07/26 06:52:47;;;;;;;1999.90;999.90;;;22.80;99.90;;;;;;5079726;28;20452;-70
2022/07/26 06:55:14;;;;;;;1999.90;999.90;;;22.60;99.90;;;;;;5071695;28;20445;-70
2022/07/26 06:57:41;;;;;;;1999.90;999.90;;;22.60;99.90;;;;;;5071462;28;20437;-70
2022/07/26 07:00:09;;;;;;;1999.90;999.90;;;22.50;99.90;;;;;;5071297;28;21069;-70
2022/07/26 07:02:36;;;;;;;1999.90;999.90;;;22.70;99.90;;;;;;5080045;28;20871;-70
2022/07/26 07:05:05;;;;;;;1999.90;999.90;;;23.00;99.90;;;;;;5087510;28;20452;-70
2022/07/26 07:07:31;;;;;;;1999.90;999.90;;;22.70;99.90;;;;;;5095322;28;20444;-70
2022/07/26 07:09:58;;;;;;;1999.90;999.90;;;22.90;99.90;;;;;;5095768;28;20544;-70
2022/07/26 07:12:24;;;;;;;1999.90;999.90;;;23.10;99.90;;;;;;5095596;28;20448;-71
2022/07/26 07:14:51;;;;;;;1999.90;999.90;;;23.10;99.90;;;;;;5086485;28;21131;-70
2022/07/26 07:17:19;;;;;;;1999.90;999.90;;;23.20;99.90;;;;;;5083296;28;20495;-70
2022/07/26 07:19:46;;;;;;;1999.90;999.90;;;23.00;99.90;;;;;;5075125;28;20506;-70
2022/07/26 07:22:14;;;;;;;1999.90;999.90;;;23.20;99.90;;;;;;5074944;28;20819;-70
2022/07/26 07:24:41;;;;;;;1999.90;999.90;;;23.00;99.90;;;;;;5075115;28;20441;-70
2022/07/26 07:27:08;;;;;;;1999.90;999.90;;;22.70;99.90;;;;;;5083357;28;20492;-70
2022/07/26 07:29:35;;;;;;;1999.90;999.90;;;22.40;99.90;;;;;;5088714;28;20476;-70
2022/07/26 07:32:02;;;;;;;1999.90;999.90;;;22.20;99.90;;;;;;5095538;28;20440;-70
2022/07/26 07:34:29;;;;;;;1999.90;999.90;;;22.10;99.90;;;;;;5095188;28;20995;-70
2022/07/26 07:36:55;;;;;;;1999.90;999.90;;;22.20;99.90;;;;;;5094681;28;20445;-71
2022/07/26 07:39:23;;;;;;;1999.90;999.90;;;22.30;99.90;;;;;;5084444;28;20508;-70
2022/07/26 07:41:50;;;;;;;1999.90;999.90;;;22.50;99.90;;;;;;5083365;28;20453;-70
2022/07/26 07:44:16;;;;;;;1999.90;999.90;;;22.60;99.90;;;;;;5075112;28;20456;-70
2022/07/26 07:46:43;;;;;;;1999.90;999.90;;;22.40;99.90;;;;;;5074833;28;20471;-70
2022/07/26 07:49:10;;;;;;;1999.90;999.90;;;22.40;99.90;;;;;;5076239;28;20464;-70
2022/07/26 07:51:37;;;;;;;1999.90;999.90;;;22.30;99.90;;;;;;5088246;28;20476;-70
2022/07/26 07:54:04;;;;;;;1999.90;999.90;;;22.40;99.90;;;;;;5092768;28;20502;-70
2022/07/26 07:56:32;;;;;;;1999.90;999.90;;;22.50;99.90;;;;;;5094761;28;20459;-70
2022/07/26 07:58:58;;;;;;;1999.90;999.90;;;22.60;99.90;;;;;;5093730;28;20476;-71
2022/07/26 08:01:25;;;;;;;1999.90;999.90;;;22.60;99.90;;;;;;5090618;28;20764;-70
2022/07/26 08:03:52;;;;;;;1999.90;999.90;;;22.60;99.90;;;;;;5090634;28;20497;-70
2022/07/26 08:06:18;;;;;;;1999.90;999.90;;;22.70;99.90;;;;;;5094523;28;20444;-70
2022/07/26 08:08:45;;;;;;;1999.90;999.90;;;22.80;99.90;;;;;;5094474;28;20957;-70
2022/07/26 08:11:11;;;;;;;1999.90;999.90;;;22.90;99.90;;;;;;5084950;28;20507;-71
2022/07/26 08:13:39;;;;;;;1999.90;999.90;;;23.10;99.90;;;;;;5079403;28;20445;-70
2022/07/26 08:16:07;;;;;;;1999.90;999.90;;;23.20;99.90;;;;;;5074076;28;20446;-70
2022/07/26 08:18:33;;;;;;;1999.90;999.90;;;23.50;99.90;;;;;;5074072;28;20450;-70
2022/07/26 08:21:02;;;;;;;1999.90;999.90;;;23.40;99.90;;;;;;5081545;28;20493;-70
2022/07/26 08:23:28;;;;;;;1999.90;999.90;;;23.40;99.90;;;;;;5081424;28;20454;-70
2022/07/26 08:25:56;;;;;;;1999.90;999.90;;;23.20;99.90;;;;;;5074142;28;20876;-70
2022/07/26 08:28:23;;;;;;;1999.90;999.90;;;23.10;99.90;;;;;;5074013;28;20457;-70
2022/07/26 08:30:51;;;;;;;1999.90;999.90;;;23.10;99.90;;;;;;5081527;28;21002;-70
2022/07/26 08:33:18;;;;;;;1999.90;999.90;;;23.40;99.90;;;;;;5082203;28;20446;-70
2022/07/26 08:35:44;;;;;;;1999.90;999.90;;;23.30;99.90;;;;;;5074013;28;20528;-70
2022/07/26 08:38:11;;;;;;;1999.90;999.90;;;23.30;99.90;;;;;;5073436;28;20865;-70
2022/07/26 08:40:38;;;;;;;1999.90;999.90;;;23.40;99.90;;;;;;5079314;28;20534;-70
2022/07/26 08:43:04;;;;;;;1999.90;999.90;;;23.70;99.90;;;;;;5081942;28;20503;-71
2022/07/26 08:45:32;;;;;;;1999.90;999.90;;;23.70;99.90;;;;;;5073355;28;20931;-70
2022/07/26 08:48:00;;;;;;;1999.90;999.90;;;23.30;99.90;;;;;;5073537;28;20503;-71
2022/07/26 08:50:28;;;;;;;1999.90;999.90;;;23.20;99.90;;;;;;5073552;28;20467;-70
2022/07/26 08:52:58;;;;;;;1999.90;999.90;;;23.30;99.90;;;;;;5073555;28;20449;-70
2022/07/26 08:55:24;;;;;;;1999.90;999.90;;;23.40;99.90;;;;;;5073521;28;20445;-70
2022/07/26 08:57:51;;;;;;;1999.90;999.90;;;23.50;99.90;;;;;;5072898;28;20473;-70
2022/07/26 09:00:20;;;;;;;1999.90;999.90;;;23.80;99.90;;;;;;5073388;28;20908;-71
2022/07/26 09:02:48;;;;;;;1999.90;999.90;;;23.70;99.90;;;;;;5073503;28;20449;-71
2022/07/26 09:05:18;;;;;;;1999.90;999.90;;;24.00;99.90;;;;;;5072984;28;20495;-71
2022/07/26 09:07:45;;;;;;;1999.90;999.90;;;24.10;99.90;;;;;;5073306;28;20433;-70
2022/07/26 09:10:14;;;;;;;1999.90;999.90;;;23.80;99.90;;;;;;5073340;28;20469;-71
2022/07/26 09:12:41;;;;;;;1999.90;999.90;;;23.70;99.90;;;;;;5072989;28;20446;-71
2022/07/26 09:15:18;;;;;;;1999.90;999.90;;;24.00;99.90;;;;;;5073273;28;20445;-71
2022/07/26 09:17:47;;;;;;;1999.90;999.90;;;24.20;99.90;;;;;;5072799;28;20433;-70
2022/07/26 09:20:17;;;;;;;1999.90;999.90;;;24.60;99.90;;;;;;5072920;28;20489;-70
2022/07/26 09:22:58;;;;;;;1999.90;999.90;;;24.60;99.90;;;;;;5072238;28;20461;-70
2022/07/26 09:25:26;;;;;;;1999.90;999.90;;;25.10;99.90;;;;;;5072714;28;20453;-68
2022/07/26 09:27:53;;;;;;;1999.90;999.90;;;25.30;99.60;;;;;;5072420;28;20445;-69
2022/07/26 09:30:20;;;;;;;1999.90;999.90;;;25.40;99.50;;;;;;5072652;28;20493;-68
2022/07/26 09:33:00;;;;;;;1999.90;999.90;;;25.60;98.80;;;;;;5072762;28;20450;-68
2022/07/26 09:35:30;;;;;;;1999.90;999.90;;;25.60;99.20;;;;;;5072469;28;20903;-68
2022/07/26 09:37:56;;;;;;;1999.90;999.90;;;26.00;98.90;;;;;;5072317;28;20472;-68
2022/07/26 09:40:23;;;;;;;1999.90;999.90;;;25.90;98.10;;;;;;5072418;28;20550;-68
2022/07/26 09:42:58;;;;;;;1999.90;999.90;;;26.00;96.80;;;;;;5072570;28;20490;-68
2022/07/26 09:45:25;;;;;;;1999.90;999.90;;;25.70;96.70;;;;;;5072595;28;20445;-67
2022/07/26 09:47:52;;;;;;;1999.90;999.90;;;25.70;97.00;;;;;;5072252;28;20479;-68
2022/07/26 09:50:22;;;;;;;1999.90;999.90;;;25.70;97.00;;;;;;5072130;28;20457;-68
2022/07/26 09:53:01;;;;;;;1999.90;999.90;;;25.60;97.20;;;;;;5072558;28;20441;-68
2022/07/26 09:55:27;;;;;;;1999.90;999.90;;;25.40;97.70;;;;;;5072484;28;20445;-68
2022/07/26 09:57:55;;;;;;;1999.90;999.90;;;25.10;98.10;;;;;;5072187;28;20499;-68
2022/07/26 10:00:24;;;;;;;1999.90;999.90;;;25.30;97.80;;;;;;5071927;28;20485;-68
2022/07/26 10:02:51;;;;;;;1999.90;999.90;;;25.40;98.70;;;;;;5072385;28;20437;-68
2022/07/26 10:05:18;;;;;;;1999.90;999.90;;;25.50;98.00;;;;;;5072007;28;20957;-68
2022/07/26 10:07:45;;;;;;;1999.90;999.90;;;25.50;98.60;;;;;;5071651;28;20867;-67
2022/07/26 10:10:18;;;;;;;1999.90;999.90;;;25.90;97.20;;;;;;5072214;28;20467;-68
2022/07/26 10:12:45;;;;;;;1999.90;999.90;;;25.90;97.00;;;;;;5071687;28;20863;-68
2022/07/26 10:15:33;;;;;;;1999.90;999.90;;;25.90;96.50;;;;;;5072304;28;20450;-70
2022/07/26 10:18:00;;;;;;;1999.90;999.90;;;25.40;97.10;;;;;;5071833;28;20437;-70
2022/07/26 10:20:53;;;;;;;1999.90;999.90;;;25.00;98.20;;;;;;5072007;28;20484;-70
2022/07/26 10:23:38;;;;;;;1999.90;999.90;;;24.40;98.50;;;;;;5072160;28;20426;-70
2022/07/26 10:26:08;;;;;;;1999.90;999.90;;;24.00;99.30;;;;;;5071917;28;20532;-70
2022/07/26 10:28:37;;;;;;;1999.90;999.90;;;23.90;99.90;;;;;;5072024;28;20491;-70
2022/07/26 10:31:24;;;;;;;1999.90;999.90;;;24.10;99.90;;;;;;5071625;28;20503;-70
2022/07/26 10:33:52;;;;;;;1999.90;999.90;;;24.00;99.90;;;;;;5071892;28;20436;-70
2022/07/26 10:36:22;;;;;;;1999.90;999.90;;;24.00;99.80;;;;;;5071662;28;20499;-68
2022/07/26 10:38:59;;;;;;;1999.90;999.90;;;24.00;99.90;;;;;;5071109;28;21235;-70
2022/07/26 10:41:34;;;;;;;1999.90;999.90;;;23.70;99.90;;;;;;5071301;28;20484;-70
2022/07/26 10:44:22;;;;;;;1999.90;999.90;;;23.50;99.90;;;;;;5071675;28;20898;-70
2022/07/26 10:47:00;;;;;;;1999.90;999.90;;;23.70;99.90;;;;;;5071355;28;20503;-70
2022/07/26 10:49:30;;;;;;;1999.90;999.90;;;24.00;99.90;;;;;;5071755;28;20430;-70
2022/07/26 10:52:10;;;;;;;1999.90;999.90;;;23.90;99.90;;;;;;5071721;28;20499;-67
2022/07/26 10:55:13;;;;;;;1999.90;999.90;;;22.90;99.90;;;;;;5071482;28;20499;-67
2022/07/26 10:57:42;;;;;;;1999.90;999.90;;;22.00;99.90;;;;;;5071235;28;20449;-67
2022/07/26 11:00:21;;;;;;;1999.90;999.90;;;21.80;99.90;;;;;;5071544;28;20503;-68
2022/07/26 11:02:52;;;;;;;1999.90;999.90;;;21.80;99.90;;;;;;5071274;28;20801;-68
2022/07/26 11:05:20;;;;;;;1999.90;999.90;;;21.50;99.90;;;;;;5071503;28;20441;-68
2022/07/26 11:07:53;;;;;;;1999.90;999.90;;;21.20;99.90;;;;;;5071258;28;20485;-67
2022/07/26 11:10:24;;;;;;;1999.90;999.90;;;21.00;99.90;;;;;;5071073;28;20514;-67
2022/07/26 11:13:04;;;;;;;1999.90;999.90;;;20.70;99.90;;;;;;5071464;28;20453;-67
2022/07/26 11:15:32;;;;;;;1999.90;999.90;;;20.60;99.90;;;;;;5071597;28;20441;-67
2022/07/26 11:18:21;;;;;;;1999.90;999.90;;;20.70;99.90;;;;;;5071202;28;20445;-67
2022/07/26 11:20:51;;;;;;;1999.90;999.90;;;20.40;99.90;;;;;;5070341;28;20560;-67
2022/07/26 11:23:26;;;;;;;1999.90;999.90;;;20.10;99.90;;;;;;5071428;28;20540;-67
2022/07/26 11:26:10;;;;;;;1999.90;999.90;;;20.00;99.90;;;;;;5071320;28;20509;-68
2022/07/26 11:28:50;;;;;;;1999.90;999.90;;;20.00;99.90;;;;;;5070983;28;20445;-67
2022/07/26 11:31:17;;;;;;;1999.90;999.90;;;20.00;99.90;;;;;;5071281;28;20465;-68
2022/07/26 11:33:47;;;;;;;1999.90;999.90;;;19.90;99.90;;;;;;5071275;28;20445;-67
2022/07/26 11:36:14;;;;;;;1999.90;999.90;;;19.80;99.90;;;;;;5071393;28;20453;-67
2022/07/26 11:38:46;;;;;;;1999.90;999.90;;;19.70;99.90;;;;;;5071112;28;20442;-68
2022/07/26 11:41:14;;;;;;;1999.90;999.90;;;19.60;99.90;;;;;;5071000;28;20488;-68
2022/07/26 11:43:41;;;;;;;1999.90;999.90;;;19.70;99.90;;;;;;5070890;28;20532;-68
2022/07/26 11:46:09;;;;;;;1999.90;999.90;;;19.70;99.90;;;;;;5071042;28;20868;-69
2022/07/26 11:48:36;;;;;;;1999.90;999.90;;;19.80;99.90;;;;;;5072180;28;20499;-69
2022/07/26 11:51:10;;;;;;;1999.90;999.90;;;19.80;99.90;;;;;;5074476;28;20886;-69
2022/07/26 11:53:37;;;;;;;1999.90;999.90;;;19.70;99.90;;;;;;5074658;28;20449;-69
2022/07/26 11:56:19;;;;;;;1999.90;999.90;;;19.60;99.90;;;;;;5074434;28;20939;-68
2022/07/26 11:58:48;;;;;;;1999.90;999.90;;;19.60;99.90;;;;;;5074604;28;20456;-68
2022/07/26 12:01:18;;;;;;;1999.90;999.90;;;19.60;99.90;;;;;;5074562;28;20513;-68
2022/07/26 12:03:48;;;;;;;1999.90;999.90;;;19.70;99.90;;;;;;5074433;28;20503;-68
2022/07/26 12:06:17;;;;;;;1999.90;999.90;;;19.90;99.90;;;;;;5074176;28;20935;-68
2022/07/26 12:08:45;;;;;;;1999.90;999.90;;;20.20;99.90;;;;;;5074255;28;20494;-68